Time,TemperatureF,DewpointF,PressureIn,WindDirection,WindDirectionDegrees,WindSpeedMPH,WindSpeedGustMPH,Humidity,HourlyPrecipIn,Conditions,Clouds,dailyrainin,SoftwareType,DateUTC
2013-08-26 00:02:00,70.0,45.0,-100.00,South,185,21.0,27.0,41,0.00,,,0.00,,2013-08-26 06:02:00,
2013-08-26 00:21:00,69.0,48.0,-100.00,SE,134,17.0,22.0,46,0.00,,,0.00,,2013-08-26 06:21:00,
2013-08-26 00:32:00,69.0,48.0,-100.00,SE,134,17.0,22.0,46,0.00,,,0.00,,2013-08-26 06:32:00,
2013-08-26 00:52:00,67.0,48.0,-100.00,SE,141,10.0,15.0,50,0.00,,,0.00,,2013-08-26 06:52:00,
2013-08-26 01:02:00,67.0,48.0,-100.00,SE,141,10.0,15.0,50,0.00,,,0.00,,2013-08-26 07:02:00,
2013-08-26 01:21:00,65.0,50.0,-100.00,SE,128,7.0,9.0,59,0.00,,,0.00,,2013-08-26 07:21:00,
2013-08-26 01:32:00,65.0,50.0,-100.00,SE,128,7.0,9.0,59,0.00,,,0.00,,2013-08-26 07:32:00,
2013-08-26 01:52:00,64.0,50.0,-100.00,ESE,107,4.0,6.0,60,0.00,,,0.00,,2013-08-26 07:52:00,
2013-08-26 02:02:00,64.0,50.0,-100.00,ESE,107,4.0,6.0,60,0.00,,,0.00,,2013-08-26 08:02:00,
2013-08-26 02:22:00,64.0,50.0,-100.00,SSE,160,3.0,4.0,60,0.00,,,0.00,,2013-08-26 08:22:00,
2013-08-26 02:32:00,64.0,50.0,-100.00,SSE,160,3.0,4.0,60,0.00,,,0.00,,2013-08-26 08:32:00,
2013-08-26 02:52:00,62.0,52.0,-100.00,South,191,6.0,9.0,69,0.00,,,0.00,,2013-08-26 08:52:00,
2013-08-26 03:02:00,62.0,52.0,-100.00,South,191,6.0,9.0,69,0.00,,,0.00,,2013-08-26 09:02:00,
2013-08-26 03:21:00,61.0,55.0,-100.00,SSE,158,7.0,9.0,80,0.03,,,0.04,,2013-08-26 09:21:00,
2013-08-26 03:33:00,61.0,55.0,-100.00,SSE,158,7.0,9.0,80,0.03,,,0.04,,2013-08-26 09:33:00,
2013-08-26 03:53:00,59.0,56.0,-100.00,SE,133,2.0,3.0,90,0.00,,,0.15,,2013-08-26 09:53:00,
2013-08-26 04:03:00,59.0,56.0,-100.00,SE,133,2.0,3.0,90,0.00,,,0.15,,2013-08-26 10:03:00,
2013-08-26 04:23:00,60.0,56.0,-100.00,ESE,120,8.0,9.0,85,0.00,,,0.15,,2013-08-26 10:23:00,
2013-08-26 04:32:00,60.0,56.0,-100.00,ESE,120,8.0,9.0,85,0.00,,,0.15,,2013-08-26 10:32:00,
2013-08-26 04:52:00,60.0,55.0,-100.00,ESE,109,9.0,10.0,81,0.00,,,0.15,,2013-08-26 10:52:00,
2013-08-26 05:02:00,60.0,55.0,-100.00,ESE,109,9.0,10.0,81,0.00,,,0.15,,2013-08-26 11:02:00,
2013-08-26 05:22:00,59.0,54.0,-100.00,ESE,120,8.0,9.0,84,0.00,,,0.15,,2013-08-26 11:22:00,
2013-08-26 05:33:00,59.0,54.0,-100.00,ESE,120,8.0,9.0,84,0.00,,,0.15,,2013-08-26 11:33:00,
2013-08-26 05:52:00,58.0,53.0,-100.00,ESE,113,8.0,9.0,84,0.00,,,0.15,,2013-08-26 11:52:00,
2013-08-26 06:01:00,58.0,53.0,-100.00,ESE,113,8.0,9.0,84,0.00,,,0.15,,2013-08-26 12:01:00,
2013-08-26 06:21:00,59.0,53.0,-100.00,ESE,109,6.0,8.0,81,0.00,,,0.15,,2013-08-26 12:21:00,
2013-08-26 06:32:00,59.0,53.0,-100.00,ESE,109,6.0,8.0,81,0.00,,,0.15,,2013-08-26 12:32:00,
2013-08-26 06:52:00,58.0,53.0,-100.00,ESE,116,3.0,4.0,83,0.00,,,0.15,,2013-08-26 12:52:00,
2013-08-26 07:02:00,58.0,53.0,-100.00,ESE,116,3.0,4.0,83,0.00,,,0.15,,2013-08-26 13:02:00,
2013-08-26 07:21:00,58.0,52.0,-100.00,ENE,58,2.0,3.0,82,0.00,,,0.15,,2013-08-26 13:21:00,
2013-08-26 07:32:00,58.0,52.0,-100.00,ENE,58,2.0,3.0,82,0.00,,,0.15,,2013-08-26 13:32:00,
2013-08-26 07:42:00,58.0,52.0,-100.00,ENE,58,2.0,3.0,82,0.00,,,0.15,,2013-08-26 13:42:00,
2013-08-26 08:11:00,56.0,53.0,-100.00,NNE,13,2.0,3.0,89,0.00,,,0.15,,2013-08-26 14:11:00,
2013-08-26 08:42:00,59.0,56.0,-100.00,NNW,330,2.0,3.0,89,0.00,,,0.15,,2013-08-26 14:42:00,
2013-08-26 09:12:00,63.0,57.0,-100.00,NNW,342,2.0,2.0,80,0.00,,,0.15,,2013-08-26 15:12:00,
2013-08-26 09:47:00,66.0,57.0,-100.00,NE,49,2.0,3.0,71,0.00,,,0.15,,2013-08-26 15:47:00,
2013-08-26 09:59:00,66.0,57.0,-100.00,NE,49,2.0,3.0,71,0.00,,,0.15,,2013-08-26 15:59:00,
2013-08-26 10:17:00,68.0,56.0,-100.00,SSE,168,0.0,0.0,65,0.00,,,0.15,,2013-08-26 16:17:00,
2013-08-26 10:29:00,68.0,56.0,-100.00,SSE,168,0.0,0.0,65,0.00,,,0.15,,2013-08-26 16:29:00,
2013-08-26 10:48:00,68.0,57.0,-100.00,ESE,109,3.0,4.0,67,0.00,,,0.15,,2013-08-26 16:48:00,
2013-08-26 10:59:00,68.0,57.0,-100.00,ESE,109,3.0,4.0,67,0.00,,,0.15,,2013-08-26 16:59:00,
2013-08-26 11:12:00,71.0,57.0,-100.00,SSE,147,4.0,5.0,61,0.00,,,0.15,,2013-08-26 17:12:00,
2013-08-26 11:24:00,71.0,57.0,-100.00,SSE,147,4.0,5.0,61,0.00,,,0.15,,2013-08-26 17:24:00,
2013-08-26 11:43:00,74.0,54.0,-100.00,SSW,209,3.0,5.0,51,0.00,,,0.15,,2013-08-26 17:43:00,
2013-08-26 11:53:00,74.0,54.0,-100.00,SSW,209,3.0,5.0,51,0.00,,,0.15,,2013-08-26 17:53:00,
2013-08-26 12:12:00,76.0,54.0,-100.00,SSW,199,7.0,11.0,45,0.00,,,0.15,,2013-08-26 18:12:00,
2013-08-26 12:42:00,77.0,55.0,-100.00,South,171,13.0,17.0,46,0.00,,,0.15,,2013-08-26 18:42:00,
2013-08-26 13:11:00,77.0,52.0,-100.00,South,189,8.0,12.0,41,0.00,,,0.15,,2013-08-26 19:11:00,
2013-08-26 13:42:00,77.0,53.0,-100.00,SSW,202,7.0,10.0,43,0.00,,,0.15,,2013-08-26 19:42:00,
2013-08-26 14:11:00,78.0,54.0,-100.00,South,191,9.0,14.0,44,0.00,,,0.15,,2013-08-26 20:11:00,
2013-08-26 14:43:00,80.0,54.0,-100.00,South,179,13.0,19.0,40,0.00,,,0.15,,2013-08-26 20:43:00,
2013-08-26 14:52:00,80.0,54.0,-100.00,South,179,13.0,19.0,40,0.00,,,0.15,,2013-08-26 20:52:00,
2013-08-26 15:01:00,80.0,54.0,-100.00,South,179,13.0,19.0,40,0.00,,,0.15,,2013-08-26 21:01:00,
2013-08-26 15:22:00,80.0,52.0,-100.00,South,174,9.0,13.0,37,0.00,,,0.15,,2013-08-26 21:22:00,
2013-08-26 15:44:00,80.0,51.0,-100.00,South,186,8.0,14.0,37,0.00,,,0.15,,2013-08-26 21:44:00,
2013-08-26 16:16:00,80.0,53.0,-100.00,South,186,11.0,16.0,39,0.00,,,0.15,,2013-08-26 22:16:00,
2013-08-26 16:26:00,80.0,53.0,-100.00,South,186,11.0,16.0,39,0.00,,,0.15,,2013-08-26 22:26:00,
2013-08-26 16:42:00,80.0,53.0,-100.00,South,179,11.0,14.0,40,0.00,,,0.15,,2013-08-26 22:42:00,
2013-08-26 17:12:00,80.0,53.0,-100.00,South,181,9.0,13.0,39,0.00,,,0.15,,2013-08-26 23:12:00,
2013-08-26 17:42:00,79.0,53.0,-100.00,South,176,9.0,13.0,40,0.00,,,0.15,,2013-08-26 23:42:00,
2013-08-26 18:11:00,79.0,51.0,-100.00,SSE,164,15.0,18.0,38,0.00,,,0.15,,2013-08-27 00:11:00,
2013-08-26 18:42:00,79.0,52.0,-100.00,SSE,165,14.0,18.0,40,0.00,,,0.15,,2013-08-27 00:42:00,
2013-08-26 19:12:00,78.0,52.0,-100.00,South,169,11.0,19.0,40,0.00,,,0.15,,2013-08-27 01:12:00,
2013-08-26 19:42:00,76.0,51.0,-100.00,South,169,11.0,17.0,42,0.00,,,0.15,,2013-08-27 01:42:00,
2013-08-26 20:12:00,74.0,53.0,-100.00,SSE,155,11.0,13.0,48,0.00,,,0.15,,2013-08-27 02:12:00,
2013-08-26 20:42:00,73.0,51.0,-100.00,SSE,167,13.0,17.0,46,0.00,,,0.15,,2013-08-27 02:42:00,
2013-08-26 21:12:00,71.0,51.0,-100.00,South,189,8.0,10.0,48,0.00,,,0.15,,2013-08-27 03:12:00,
2013-08-26 21:44:00,70.0,52.0,-100.00,South,186,6.0,9.0,52,0.00,,,0.15,,2013-08-27 03:44:00,
2013-08-26 22:18:00,69.0,52.0,-100.00,SE,133,6.0,7.0,55,0.00,,,0.15,,2013-08-27 04:18:00,
2013-08-26 22:29:00,69.0,52.0,-100.00,SE,133,6.0,7.0,55,0.00,,,0.15,,2013-08-27 04:29:00,
2013-08-26 22:47:00,69.0,52.0,-100.00,SSE,158,8.0,9.0,55,0.00,,,0.15,,2013-08-27 04:47:00,
2013-08-26 22:54:00,69.0,52.0,-100.00,SSE,158,8.0,9.0,55,0.00,,,0.15,,2013-08-27 04:54:00,
2013-08-26 23:13:00,67.0,52.0,-100.00,ESE,109,5.0,6.0,59,0.00,,,0.15,,2013-08-27 05:13:00,
2013-08-26 23:43:00,68.0,51.0,-100.00,ESE,119,7.0,8.0,55,0.00,,,0.15,,2013-08-27 05:43:00,